Time;durP1;ratioP1;P1;durP2;ratioP2;P2;SDS_P1;SDS_P2;PMS_P1;PMS_P2;Temp;Humidity;BMP_temperature;BMP_pressure;BME280_temperature;BME280_humidity;BME280_pressure;Samples;Min_cycle;Max_cycle;Signal;HPM_P1;HPM_P2
2023/10/16 00:01:09;;;;;;;20.83;15.77;;;9.00;99.90;;;;;;5041368;28;20104;-75
2023/10/16 00:03:39;;;;;;;24.75;16.90;;;8.80;99.90;;;;;;5037434;28;20680;-75
2023/10/16 00:06:11;;;;;;;20.70;15.30;;;8.80;99.90;;;;;;5040804;28;20112;-74
2023/10/16 00:08:46;;;;;;;25.50;17.65;;;8.80;99.90;;;;;;5021495;28;20036;-75
2023/10/16 00:11:16;;;;;;;31.77;16.67;;;8.80;99.90;;;;;;5040080;28;20435;-74
2023/10/16 00:13:47;;;;;;;23.08;15.05;;;8.80;99.90;;;;;;5019020;28;20025;-75
2023/10/16 00:16:16;;;;;;;24.08;15.57;;;8.80;99.90;;;;;;5038728;28;20037;-74
2023/10/16 00:18:42;;;;;;;25.90;16.75;;;8.70;99.90;;;;;;5037738;28;20029;-75
2023/10/16 00:21:08;;;;;;;23.75;17.25;;;8.80;99.90;;;;;;5037959;28;20104;-74
2023/10/16 00:23:38;;;;;;;27.38;18.17;;;8.80;99.90;;;;;;5039960;28;20150;-74
2023/10/16 00:26:06;;;;;;;21.65;16.35;;;8.80;99.90;;;;;;5037970;28;20013;-74
2023/10/16 00:28:33;;;;;;;21.52;16.50;;;8.80;99.90;;;;;;5035911;28;20072;-75
2023/10/16 00:30:59;;;;;;;25.27;18.45;;;8.80;99.90;;;;;;5023235;28;20033;-74
2023/10/16 00:33:24;;;;;;;25.35;17.65;;;8.70;99.90;;;;;;5020552;28;20019;-74
2023/10/16 00:35:53;;;;;;;25.48;16.30;;;8.70;99.90;;;;;;5040720;28;20482;-75
2023/10/16 00:38:19;;;;;;;27.25;16.65;;;8.70;99.90;;;;;;5037925;28;20025;-75
2023/10/16 00:43:33;;;;;;;21.13;16.35;;;8.70;99.90;;;;;;5039098;28;20072;-74
2023/10/16 00:46:06;;;;;;;24.08;16.58;;;8.70;99.90;;;;;;5039942;28;20024;-74
2023/10/16 00:48:33;;;;;;;25.30;16.60;;;8.70;99.90;;;;;;5035878;28;20163;-74
2023/10/16 00:51:06;;;;;;;29.83;17.23;;;8.70;99.90;;;;;;5038441;28;20104;-75
2023/10/16 00:53:32;;;;;;;27.58;18.02;;;8.70;99.90;;;;;;5035299;28;20040;-76
2023/10/16 00:55:58;;;;;;;21.17;17.15;;;8.60;99.90;;;;;;5034987;28;20087;-75
2023/10/16 00:58:29;;;;;;;30.20;18.67;;;8.60;99.90;;;;;;5033160;28;20108;-75
2023/10/16 01:00:57;;;;;;;24.33;17.02;;;8.60;99.90;;;;;;5036488;28;20040;-75
2023/10/16 01:03:26;;;;;;;25.45;17.90;;;8.60;99.90;;;;;;5035280;28;20014;-75
2023/10/16 01:05:53;;;;;;;25.80;18.00;;;8.60;99.90;;;;;;5033630;28;20025;-75
2023/10/16 01:08:19;;;;;;;24.70;18.08;;;8.60;99.90;;;;;;5016233;28;20078;-75
2023/10/16 01:10:54;;;;;;;25.17;18.30;;;8.60;99.90;;;;;;5033733;28;20020;-75
2023/10/16 01:13:20;;;;;;;26.17;18.13;;;8.50;99.90;;;;;;5039453;28;20028;-75
2023/10/16 01:15:46;;;;;;;24.88;18.85;;;8.50;99.90;;;;;;5019335;28;20044;-75
2023/10/16 01:18:15;;;;;;;24.70;18.50;;;8.50;99.90;;;;;;5020709;28;20021;-75
2023/10/16 01:20:48;;;;;;;22.85;16.80;;;8.50;99.90;;;;;;5035432;28;20044;-75
2023/10/16 01:23:25;;;;;;;26.95;19.15;;;8.50;99.90;;;;;;5036191;28;20029;-75
2023/10/16 01:25:51;;;;;;;27.65;19.45;;;8.40;99.90;;;;;;5037109;28;20021;-75
2023/10/16 01:28:19;;;;;;;27.58;19.05;;;8.40;99.90;;;;;;5039748;28;20042;-75
2023/10/16 01:30:47;;;;;;;28.15;19.63;;;8.30;99.90;;;;;;5036178;28;20029;-75
2023/10/16 01:33:16;;;;;;;27.75;20.80;;;8.30;99.90;;;;;;5034654;28;20462;-75
2023/10/16 01:35:46;;;;;;;30.83;20.63;;;8.30;99.90;;;;;;5039374;28;20137;-75
2023/10/16 01:38:15;;;;;;;25.10;19.58;;;8.40;99.90;;;;;;5036058;28;20486;-75
2023/10/16 01:41:13;;;;;;;27.92;19.83;;;8.40;99.90;;;;;;5036199;28;20037;-75
2023/10/16 01:43:38;;;;;;;31.77;19.48;;;8.40;99.90;;;;;;5032859;28;20398;-75
2023/10/16 01:46:08;;;;;;;27.30;20.40;;;8.40;99.90;;;;;;5035522;28;20017;-75
2023/10/16 01:48:39;;;;;;;27.80;20.08;;;8.40;99.90;;;;;;5037314;28;20477;-75
2023/10/16 01:51:20;;;;;;;27.77;20.27;;;8.40;99.90;;;;;;5035811;28;20879;-74
2023/10/16 01:53:47;;;;;;;29.88;21.00;;;8.40;99.90;;;;;;5037736;28;20101;-74
2023/10/16 01:56:14;;;;;;;30.45;21.08;;;8.30;99.90;;;;;;5037052;28;20104;-74
2023/10/16 01:58:44;;;;;;;32.38;21.50;;;8.30;99.90;;;;;;5039050;28;20033;-75
2023/10/16 02:01:17;;;;;;;30.58;20.35;;;8.40;99.90;;;;;;5039660;28;20033;-74
2023/10/16 02:03:46;;;;;;;26.83;20.83;;;8.40;99.90;;;;;;5034625;28;22256;-75
2023/10/16 02:06:15;;;;;;;30.00;19.20;;;8.40;99.90;;;;;;5038119;28;20025;-75
2023/10/16 02:08:43;;;;;;;28.95;19.63;;;8.40;99.90;;;;;;5036986;28;20028;-75
2023/10/16 02:11:10;;;;;;;31.35;19.45;;;8.40;99.90;;;;;;5017337;28;20032;-75
2023/10/16 02:13:40;;;;;;;32.50;20.60;;;8.30;99.90;;;;;;5037733;28;20022;-74
2023/10/16 02:16:10;;;;;;;30.67;20.63;;;8.30;99.90;;;;;;5013944;28;20907;-75
2023/10/16 02:18:44;;;;;;;26.10;19.92;;;8.40;99.90;;;;;;5036791;28;20470;-74
2023/10/16 02:21:14;;;;;;;28.25;20.20;;;8.40;99.90;;;;;;5035641;28;20489;-75
2023/10/16 02:23:46;;;;;;;26.27;18.80;;;8.40;99.90;;;;;;5036540;28;20025;-75
2023/10/16 02:26:12;;;;;;;27.38;18.90;;;8.30;99.90;;;;;;5034026;28;20474;-75
2023/10/16 02:28:41;;;;;;;26.23;18.05;;;8.30;99.90;;;;;;5039602;28;20028;-75
2023/10/16 02:31:17;;;;;;;26.23;18.20;;;8.30;99.90;;;;;;5038796;28;20044;-75
2023/10/16 02:33:50;;;;;;;26.98;17.98;;;8.30;99.90;;;;;;5040477;28;20543;-74
2023/10/16 02:36:20;;;;;;;26.35;19.77;;;8.30;99.90;;;;;;5024904;28;20383;-74
2023/10/16 02:38:47;;;;;;;23.67;17.85;;;8.30;99.90;;;;;;5042193;28;20117;-75
2023/10/16 02:41:15;;;;;;;24.73;17.98;;;8.30;99.90;;;;;;5043170;28;20021;-74
2023/10/16 02:43:46;;;;;;;28.52;18.38;;;8.30;99.90;;;;;;5042143;28;20481;-75
2023/10/16 02:46:13;;;;;;;21.95;16.45;;;8.30;99.90;;;;;;5042133;28;20013;-75
2023/10/16 02:48:42;;;;;;;25.60;17.95;;;8.20;99.90;;;;;;5041250;28;20490;-76
2023/10/16 02:51:09;;;;;;;26.25;18.52;;;8.30;99.90;;;;;;5025389;28;20025;-75
2023/10/16 02:53:36;;;;;;;29.05;18.40;;;8.20;99.90;;;;;;5041429;28;20343;-75
2023/10/16 02:56:08;;;;;;;27.48;17.13;;;8.20;99.90;;;;;;5041901;28;20034;-75
2023/10/16 02:58:42;;;;;;;25.90;17.40;;;8.20;99.90;;;;;;5041981;28;20025;-75
2023/10/16 03:01:18;;;;;;;22.40;15.90;;;8.20;99.90;;;;;;5040515;28;20033;-76
2023/10/16 03:03:45;;;;;;;24.08;16.83;;;8.20;99.90;;;;;;5040921;28;20021;-75
2023/10/16 03:06:11;;;;;;;24.90;17.80;;;8.20;99.90;;;;;;5043760;28;20099;-75
2023/10/16 03:08:37;;;;;;;26.10;16.02;;;8.20;99.90;;;;;;5042366;28;20080;-75
2023/10/16 03:11:07;;;;;;;32.80;16.98;;;8.20;99.90;;;;;;5042395;28;20700;-75
2023/10/16 03:13:35;;;;;;;27.98;18.30;;;8.20;99.90;;;;;;5039349;28;20108;-75
2023/10/16 03:16:15;;;;;;;24.17;17.02;;;8.20;99.90;;;;;;5040249;28;20106;-75
2023/10/16 03:18:44;;;;;;;24.58;16.15;;;8.20;99.90;;;;;;5040094;28;20355;-76
2023/10/16 03:23:44;;;;;;;26.75;16.20;;;8.10;99.90;;;;;;5042175;28;20031;-75
2023/10/16 03:26:32;;;;;;;25.80;17.88;;;8.10;99.90;;;;;;5038639;28;20021;-75
2023/10/16 03:29:05;;;;;;;28.10;18.58;;;8.10;99.90;;;;;;5041882;28;20029;-75
2023/10/16 03:31:36;;;;;;;25.63;17.98;;;8.10;99.90;;;;;;5037697;28;20125;-75
2023/10/16 03:34:02;;;;;;;30.42;18.33;;;8.00;99.90;;;;;;5040859;28;20115;-74
2023/10/16 03:36:28;;;;;;;28.92;19.60;;;8.00;99.90;;;;;;5042645;28;20108;-75
2023/10/16 03:38:57;;;;;;;27.05;19.42;;;8.00;99.90;;;;;;5023982;28;20021;-74
2023/10/16 03:41:32;;;;;;;26.83;18.63;;;8.00;99.90;;;;;;5041876;28;20087;-75
2023/10/16 03:44:06;;;;;;;30.70;18.73;;;8.00;99.90;;;;;;5040738;28;20052;-74
2023/10/16 03:46:32;;;;;;;29.77;20.05;;;8.00;99.90;;;;;;5039141;28;20025;-74
2023/10/16 03:48:58;;;;;;;29.23;19.58;;;8.00;99.90;;;;;;5040987;28;20021;-74
2023/10/16 03:51:24;;;;;;;27.95;17.95;;;8.00;99.90;;;;;;5040433;28;20036;-75
2023/10/16 03:53:52;;;;;;;27.52;19.30;;;8.00;99.90;;;;;;5051551;28;20110;-74
2023/10/16 03:56:18;;;;;;;27.00;17.63;;;8.00;99.90;;;;;;5035272;28;20040;-75
2023/10/16 03:58:44;;;;;;;24.17;18.58;;;7.90;99.90;;;;;;5035651;28;20029;-75
2023/10/16 04:01:23;;;;;;;24.58;17.48;;;7.90;99.90;;;;;;5052979;28;20040;-75
2023/10/16 04:03:56;;;;;;;23.45;16.20;;;7.90;99.90;;;;;;5052363;28;20017;-75
2023/10/16 04:06:22;;;;;;;29.42;17.40;;;7.90;99.90;;;;;;5053412;28;20017;-75
2023/10/16 04:08:49;;;;;;;25.00;18.88;;;7.90;99.90;;;;;;5051124;28;20025;-75
2023/10/16 04:11:16;;;;;;;28.55;18.92;;;7.90;99.90;;;;;;5053369;28;20474;-76
2023/10/16 04:13:48;;;;;;;24.38;17.83;;;7.90;99.90;;;;;;5053272;28;20104;-75
2023/10/16 04:16:30;;;;;;;27.95;19.67;;;7.90;99.90;;;;;;5052819;28;20029;-75
2023/10/16 04:19:20;;;;;;;19.73;16.05;;;7.90;99.90;;;;;;5052508;28;20077;-75
2023/10/16 04:21:50;;;;;;;21.60;16.00;;;7.80;99.90;;;;;;5052874;28;20377;-74
2023/10/16 04:34:52;;;;;;;20.88;15.10;;;7.70;99.90;;;;;;5052413;28;20036;-75
2023/10/16 04:53:11;;;;;;;52.08;39.72;;;7.60;99.90;;;;;;5072650;28;20066;-75
2023/10/16 05:06:11;;;;;;;29.52;18.95;;;7.50;99.90;;;;;;5043389;28;20132;-75
2023/10/16 05:14:04;;;;;;;27.77;20.63;;;7.40;99.90;;;;;;5051489;28;20032;-75
2023/10/16 05:16:38;;;;;;;28.90;20.88;;;7.50;99.90;;;;;;5051192;28;20036;-74
2023/10/16 06:16:20;;;;;;;40.70;28.52;;;7.30;99.90;;;;;;5048518;28;20056;-75
2023/10/16 06:18:47;;;;;;;42.20;28.00;;;7.30;99.90;;;;;;5055104;28;20021;-74
2023/10/16 06:21:14;;;;;;;42.40;28.95;;;7.30;99.90;;;;;;5055316;28;20112;-74
2023/10/16 06:23:49;;;;;;;42.05;29.40;;;7.30;99.90;;;;;;5054809;28;20096;-73
2023/10/16 06:26:21;;;;;;;46.22;30.95;;;7.30;99.90;;;;;;5055198;28;20028;-73
2023/10/16 06:28:49;;;;;;;41.83;28.33;;;7.30;99.90;;;;;;5054611;28;20033;-74
2023/10/16 06:31:22;;;;;;;40.38;29.30;;;7.30;99.90;;;;;;5054156;28;20029;-74
2023/10/16 06:33:53;;;;;;;45.67;31.48;;;7.30;99.90;;;;;;5037146;28;20060;-74
2023/10/16 06:36:24;;;;;;;43.83;30.90;;;7.30;99.90;;;;;;5035890;28;20387;-73
2023/10/16 06:38:53;;;;;;;43.05;29.80;;;7.30;99.90;;;;;;5054709;28;20032;-73
2023/10/16 06:41:20;;;;;;;43.90;30.70;;;7.30;99.90;;;;;;5053146;28;20021;-73
2023/10/16 06:43:47;;;;;;;45.88;31.25;;;7.30;99.90;;;;;;5054413;28;20102;-73
2023/10/16 06:46:24;;;;;;;46.08;30.52;;;7.40;99.90;;;;;;5036526;28;20029;-74
2023/10/16 06:48:52;;;;;;;54.90;31.27;;;7.30;99.90;;;;;;5054111;28;20025;-73
2023/10/16 06:51:18;;;;;;;55.95;31.50;;;7.30;99.90;;;;;;5037021;28;20398;-73
2023/10/16 06:53:45;;;;;;;51.10;32.80;;;7.30;99.90;;;;;;5054185;28;20020;-74
2023/10/16 06:56:14;;;;;;;57.15;33.20;;;7.30;99.90;;;;;;5054152;28;20148;-74
2023/10/16 06:58:40;;;;;;;47.40;30.00;;;7.40;99.90;;;;;;5054385;28;20029;-74
2023/10/16 07:01:06;;;;;;;45.10;30.67;;;7.40;99.90;;;;;;5053774;28;20029;-74
2023/10/16 07:03:38;;;;;;;48.20;30.70;;;7.40;99.90;;;;;;5054305;28;20071;-73
2023/10/16 07:06:05;;;;;;;40.35;27.73;;;7.50;99.90;;;;;;5053423;28;20120;-74
2023/10/16 07:08:33;;;;;;;41.38;27.05;;;7.50;99.90;;;;;;5054165;28;20040;-74
2023/10/16 07:11:03;;;;;;;40.30;26.60;;;7.50;99.90;;;;;;5053432;28;20023;-74
2023/10/16 07:13:31;;;;;;;40.47;26.08;;;7.50;99.90;;;;;;5033784;28;20033;-73
2023/10/16 07:16:01;;;;;;;34.00;24.02;;;7.60;99.90;;;;;;5052088;28;20040;-74
2023/10/16 07:18:27;;;;;;;35.72;25.85;;;7.60;99.90;;;;;;5054180;28;20443;-74
2023/10/16 07:21:07;;;;;;;38.53;27.42;;;7.60;99.90;;;;;;5053519;28;20029;-74
2023/10/16 07:23:34;;;;;;;36.25;27.25;;;7.60;99.90;;;;;;5054165;28;20021;-74
2023/10/16 07:26:01;;;;;;;41.05;24.90;;;7.60;99.90;;;;;;5053563;28;20032;-74
2023/10/16 07:28:28;;;;;;;38.15;25.33;;;7.70;99.90;;;;;;5035866;28;20390;-74
2023/10/16 07:31:05;;;;;;;33.15;23.45;;;7.70;99.90;;;;;;5053763;28;20035;-75
2023/10/16 07:33:32;;;;;;;29.85;22.60;;;7.70;99.90;;;;;;5053073;28;20025;-75
2023/10/16 07:36:01;;;;;;;38.25;23.08;;;7.70;99.90;;;;;;5052482;28;20035;-75
2023/10/16 07:38:28;;;;;;;37.20;24.35;;;7.70;99.90;;;;;;5050735;28;20025;-74
2023/10/16 07:40:56;;;;;;;34.47;23.90;;;7.60;99.90;;;;;;5054179;28;20595;-74
2023/10/16 07:43:27;;;;;;;31.90;22.13;;;7.60;99.90;;;;;;5071453;28;20052;-75
2023/10/16 07:48:52;;;;;;;36.78;24.00;;;7.80;99.90;;;;;;5053107;28;20496;-74
2023/10/16 07:51:26;;;;;;;37.25;23.23;;;7.90;99.90;;;;;;5050072;28;20512;-74
2023/10/16 07:53:53;;;;;;;37.95;23.42;;;8.00;99.90;;;;;;5051916;28;20128;-74
2023/10/16 07:56:25;;;;;;;34.70;25.20;;;8.00;99.90;;;;;;5052401;28;20063;-74
2023/10/16 07:58:56;;;;;;;41.53;28.20;;;8.10;99.90;;;;;;5052124;28;20029;-75
2023/10/16 08:04:27;;;;;;;44.13;30.15;;;8.20;99.90;;;;;;5054464;28;20044;-75
2023/10/16 08:07:16;;;;;;;45.13;30.33;;;8.30;99.90;;;;;;5036623;28;20024;-75
2023/10/16 08:12:41;;;;;;;54.03;35.75;;;8.40;99.90;;;;;;5052691;28;20051;-75
2023/10/16 08:15:14;;;;;;;55.85;35.28;;;8.50;99.90;;;;;;5048678;28;20033;-76
2023/10/16 08:17:40;;;;;;;57.58;36.53;;;8.50;99.90;;;;;;5033310;28;20041;-75
2023/10/16 08:20:08;;;;;;;59.75;38.20;;;8.50;99.90;;;;;;5037218;28;20017;-75
2023/10/16 08:22:33;;;;;;;63.60;39.45;;;8.50;99.90;;;;;;5052508;28;20067;-75
2023/10/16 08:25:00;;;;;;;62.38;37.55;;;8.70;99.90;;;;;;5051490;28;20028;-75
2023/10/16 08:33:06;;;;;;;66.18;41.70;;;8.80;99.90;;;;;;5049149;28;20036;-75
2023/10/16 08:35:38;;;;;;;69.90;43.40;;;9.00;99.90;;;;;;5051517;28;20025;-76
2023/10/16 08:38:14;;;;;;;68.22;43.10;;;9.00;99.90;;;;;;5050612;28;20029;-75
2023/10/16 08:40:44;;;;;;;69.45;44.30;;;9.10;99.90;;;;;;5033506;28;20039;-75
2023/10/16 08:43:10;;;;;;;64.57;41.10;;;9.20;99.90;;;;;;5052204;28;20056;-76
2023/10/16 08:45:48;;;;;;;71.03;40.75;;;9.20;99.90;;;;;;5051337;28;20025;-75
2023/10/16 08:48:17;;;;;;;72.05;42.33;;;9.30;99.90;;;;;;5052172;28;20113;-76
2023/10/16 08:50:52;;;;;;;65.95;40.45;;;9.20;99.90;;;;;;5048403;28;20378;-75
2023/10/16 08:53:31;;;;;;;65.97;42.38;;;9.30;99.90;;;;;;5051916;28;20099;-76
2023/10/16 08:56:07;;;;;;;57.80;39.13;;;9.30;99.90;;;;;;5049340;28;20125;-75
2023/10/16 08:58:40;;;;;;;63.97;39.38;;;9.50;99.90;;;;;;5047775;28;20102;-76
2023/10/16 09:01:09;;;;;;;59.50;39.08;;;9.70;99.90;;;;;;5034058;28;20049;-77
2023/10/16 09:03:38;;;;;;;55.65;36.75;;;9.80;99.90;;;;;;5043794;28;20025;-76
2023/10/16 09:06:05;;;;;;;56.45;35.47;;;9.90;99.90;;;;;;5041999;28;20033;-76
2023/10/16 09:08:35;;;;;;;53.00;33.80;;;10.10;99.90;;;;;;5051516;28;20018;-76
2023/10/16 09:11:07;;;;;;;51.88;32.40;;;10.20;99.90;;;;;;5032440;28;20025;-77
2023/10/16 09:13:36;;;;;;;45.97;29.55;;;10.30;99.90;;;;;;5032417;28;20025;-76
2023/10/16 09:16:23;;;;;;;46.03;28.67;;;10.30;99.90;;;;;;5030233;28;20482;-77
2023/10/16 09:18:51;;;;;;;44.63;29.50;;;10.40;99.90;;;;;;5029996;28;20022;-76
2023/10/16 09:21:27;;;;;;;44.33;30.48;;;10.50;99.90;;;;;;5032112;28;20526;-77
2023/10/16 09:23:58;;;;;;;46.47;30.92;;;10.60;99.90;;;;;;5051488;28;20025;-76
2023/10/16 09:26:37;;;;;;;43.95;31.33;;;10.80;99.90;;;;;;5031668;28;20478;-77
2023/10/16 09:29:36;;;;;;;43.00;27.48;;;10.80;99.90;;;;;;5013745;28;20113;-76
2023/10/16 09:31:57;;;;;;;38.90;24.88;;;10.90;99.90;;;;;;5027906;28;20026;-78
2023/10/16 09:34:26;;;;;;;38.72;24.40;;;10.90;99.90;;;;;;5044269;28;20036;-76
2023/10/16 09:39:40;;;;;;;48.90;27.77;;;11.10;99.90;;;;;;5053144;28;20043;-76
2023/10/16 09:42:12;;;;;;;36.83;27.33;;;11.20;99.90;;;;;;5054919;28;20592;-75
2023/10/16 09:44:56;;;;;;;45.63;29.67;;;11.20;99.90;;;;;;5035243;28;20021;-76
2023/10/16 09:47:27;;;;;;;42.72;29.05;;;11.40;99.90;;;;;;5055186;28;20035;-76
2023/10/16 09:50:01;;;;;;;35.13;24.17;;;11.60;99.90;;;;;;5037976;28;20021;-77
2023/10/16 09:52:32;;;;;;;35.47;23.75;;;11.70;99.90;;;;;;5035373;28;20032;-77
2023/10/16 09:55:01;;;;;;;44.80;27.90;;;11.90;99.90;;;;;;5037709;28;20056;-74
2023/10/16 09:57:30;;;;;;;25.10;19.52;;;12.00;99.90;;;;;;5054571;28;20036;-75
2023/10/16 10:00:05;;;;;;;32.15;21.10;;;12.10;99.90;;;;;;5055730;28;20047;-75
2023/10/16 10:02:35;;;;;;;32.80;21.92;;;12.20;99.90;;;;;;5054948;28;20025;-79
2023/10/16 10:05:09;;;;;;;32.80;21.98;;;12.30;99.90;;;;;;5055073;28;20045;-75
2023/10/16 10:07:47;;;;;;;29.65;21.10;;;12.40;99.90;;;;;;5055169;28;20029;-75
2023/10/16 10:13:10;;;;;;;20.40;12.43;;;12.60;99.90;;;;;;5055093;28;20478;-76
2023/10/16 10:15:49;;;;;;;15.30;11.05;;;12.50;99.90;;;;;;5036949;28;20033;-76
2023/10/16 10:18:32;;;;;;;19.58;11.15;;;12.70;99.90;;;;;;5037801;28;20048;-76
2023/10/16 10:20:58;;;;;;;16.92;11.20;;;12.80;99.90;;;;;;5037159;28;20070;-76
2023/10/16 10:23:25;;;;;;;15.02;10.57;;;12.80;99.90;;;;;;5035426;28;20025;-77
2023/10/16 10:25:54;;;;;;;21.50;12.30;;;12.90;99.90;;;;;;5033474;28;20049;-77
2023/10/16 10:28:22;;;;;;;15.95;9.68;;;12.90;99.90;;;;;;5035313;28;20065;-78
2023/10/16 10:30:50;;;;;;;16.10;10.40;;;13.00;99.90;;;;;;5045848;28;20028;-77
2023/10/16 10:33:37;;;;;;;18.65;9.80;;;13.00;99.90;;;;;;5037078;28;20021;-76
2023/10/16 10:36:34;;;;;;;11.65;5.90;;;13.10;99.90;;;;;;5054625;28;20040;-77
2023/10/16 10:39:23;;;;;;;10.63;6.30;;;13.20;99.90;;;;;;5037345;28;20108;-76
2023/10/16 10:42:03;;;;;;;8.27;4.60;;;13.40;99.90;;;;;;5035771;28;20474;-74
2023/10/16 10:44:37;;;;;;;9.00;4.55;;;13.40;99.90;;;;;;5031494;28;20039;-76
2023/10/16 10:47:23;;;;;;;8.63;5.28;;;13.50;99.90;;;;;;5055013;28;20543;-76
2023/10/16 10:49:59;;;;;;;10.98;4.88;;;13.50;99.90;;;;;;5054250;28;20028;-77
2023/10/16 10:52:27;;;;;;;13.57;4.90;;;13.60;99.90;;;;;;5053966;28;20021;-77
2023/10/16 10:54:58;;;;;;;7.28;4.60;;;13.70;99.90;;;;;;5053894;28;20031;-76
2023/10/16 10:57:24;;;;;;;10.95;4.60;;;13.80;99.90;;;;;;5055237;28;20033;-75
2023/10/16 11:00:22;;;;;;;10.75;4.80;;;13.80;99.90;;;;;;5055000;28;20107;-77
2023/10/16 11:02:52;;;;;;;7.30;4.28;;;13.70;99.90;;;;;;5053909;28;20041;-76
2023/10/16 11:05:25;;;;;;;7.30;3.88;;;13.70;99.90;;;;;;5039734;28;20028;-76
2023/10/16 11:10:33;;;;;;;10.75;3.67;;;13.90;99.90;;;;;;5054281;28;20040;-77
2023/10/16 11:13:04;;;;;;;7.10;3.30;;;13.90;99.90;;;;;;5038519;28;20029;-77
2023/10/16 11:15:30;;;;;;;7.75;3.60;;;13.90;99.90;;;;;;5045728;28;20033;-77
2023/10/16 11:18:05;;;;;;;8.55;3.22;;;13.90;99.90;;;;;;5033901;28;20104;-77
2023/10/16 11:20:32;;;;;;;8.75;2.60;;;14.00;99.90;;;;;;5033101;28;20029;-77
2023/10/16 11:22:58;;;;;;;8.35;2.88;;;13.80;99.90;;;;;;5050037;28;20056;-76
2023/10/16 11:25:28;;;;;;;4.47;2.95;;;13.90;99.90;;;;;;5053716;28;20032;-77
2023/10/16 11:27:57;;;;;;;6.25;1.58;;;13.90;99.90;;;;;;5053836;28;20029;-75
2023/10/16 11:30:26;;;;;;;7.55;2.00;;;13.90;99.90;;;;;;5035171;28;20036;-78
2023/10/16 11:32:54;;;;;;;3.15;1.60;;;14.00;99.90;;;;;;5047110;28;20023;-77
2023/10/16 11:35:26;;;;;;;6.53;1.42;;;14.00;99.90;;;;;;5054149;28;20561;-76
2023/10/16 11:37:59;;;;;;;3.47;1.92;;;13.80;99.90;;;;;;5036809;28;20025;-76
2023/10/16 11:40:39;;;;;;;;;;;13.90;99.90;;;;;;5054009;28;20017;-78
2023/10/16 11:43:12;;;;;;;5.15;2.03;;;14.00;99.90;;;;;;5053901;28;19915;-80
2023/10/16 11:45:56;;;;;;;4.47;1.65;;;14.10;99.90;;;;;;5053661;28;20033;-80
2023/10/16 11:48:35;;;;;;;8.05;2.05;;;14.10;99.90;;;;;;5053118;28;20024;-79
2023/10/16 11:51:08;;;;;;;9.88;2.15;;;14.00;99.90;;;;;;5054000;28;20087;-79
2023/10/16 11:53:37;;;;;;;3.55;2.20;;;14.00;99.90;;;;;;5053599;28;20075;-78
2023/10/16 11:56:03;;;;;;;4.80;2.80;;;13.80;99.90;;;;;;5035394;28;20075;-79
2023/10/16 11:58:32;;;;;;;5.05;1.65;;;13.90;99.90;;;;;;5051651;28;20094;-79
2023/10/16 12:01:08;;;;;;;3.30;1.23;;;13.90;99.90;;;;;;5049032;28;20025;-77
2023/10/16 12:03:37;;;;;;;2.40;1.52;;;14.00;99.90;;;;;;5022090;28;20036;-80
2023/10/16 12:06:08;;;;;;;5.03;2.20;;;14.00;99.90;;;;;;5042920;28;20035;-82
2023/10/16 12:08:36;;;;;;;6.53;2.70;;;14.00;99.90;;;;;;5040907;28;20475;-80
2023/10/16 12:11:03;;;;;;;4.90;2.95;;;14.10;99.90;;;;;;5033462;28;20025;-80
2023/10/16 12:13:28;;;;;;;5.63;2.72;;;14.10;99.90;;;;;;5039643;28;20029;-81
2023/10/16 12:15:54;;;;;;;5.18;2.97;;;14.20;99.90;;;;;;5042425;28;20037;-81
2023/10/16 12:18:21;;;;;;;5.82;2.72;;;14.10;99.90;;;;;;5032548;28;20529;-80
2023/10/16 12:20:47;;;;;;;5.28;2.42;;;14.10;99.90;;;;;;5048495;28;20085;-78
2023/10/16 12:23:12;;;;;;;4.68;2.20;;;14.10;99.90;;;;;;5053015;28;20021;-82
2023/10/16 12:25:39;;;;;;;4.30;2.10;;;14.10;99.90;;;;;;5052386;28;20478;-81
2023/10/16 12:28:07;;;;;;;7.70;2.60;;;14.10;99.90;;;;;;5052550;28;20441;-82
2023/10/16 12:30:36;;;;;;;5.18;2.10;;;14.30;99.90;;;;;;5052722;28;20098;-79
2023/10/16 12:33:06;;;;;;;4.53;2.17;;;14.30;99.90;;;;;;5051649;28;20028;-81
2023/10/16 12:35:34;;;;;;;8.77;2.08;;;14.30;99.90;;;;;;5052124;28;20030;-82
2023/10/16 12:38:07;;;;;;;8.18;2.10;;;14.30;99.90;;;;;;5051708;28;20021;-81
2023/10/16 12:40:37;;;;;;;9.70;2.13;;;14.20;99.90;;;;;;5035041;28;20028;-82
2023/10/16 12:43:05;;;;;;;5.15;2.25;;;14.20;99.90;;;;;;5018098;28;20074;-79
2023/10/16 12:45:32;;;;;;;3.33;1.98;;;14.20;99.90;;;;;;5038927;28;20494;-81
2023/10/16 12:47:58;;;;;;;5.35;1.80;;;14.20;99.90;;;;;;5040846;28;20098;-78
2023/10/16 12:50:25;;;;;;;4.57;2.75;;;14.20;99.90;;;;;;5037841;28;20029;-81
2023/10/16 12:52:55;;;;;;;3.83;2.35;;;14.30;99.90;;;;;;5038343;28;20029;-83
2023/10/16 12:55:22;;;;;;;6.63;2.90;;;14.30;99.90;;;;;;5036399;28;20037;-75
2023/10/16 12:57:52;;;;;;;5.68;2.88;;;14.30;99.90;;;;;;5036935;28;20020;-82
2023/10/16 13:00:19;;;;;;;4.63;2.30;;;14.20;99.90;;;;;;5036166;28;20394;-76
2023/10/16 13:02:49;;;;;;;4.68;2.10;;;14.30;99.90;;;;;;5020282;28;20036;-81
2023/10/16 13:05:15;;;;;;;4.25;1.98;;;14.30;99.90;;;;;;5034642;28;20104;-80
2023/10/16 13:07:42;;;;;;;4.85;1.83;;;14.30;99.90;;;;;;5033790;28;20044;-83
2023/10/16 13:10:11;;;;;;;3.20;1.63;;;14.30;99.90;;;;;;5037772;28;20021;-82
2023/10/16 13:12:37;;;;;;;4.95;1.67;;;14.30;99.90;;;;;;5034234;28;20021;-76
2023/10/16 13:15:03;;;;;;;3.33;1.05;;;14.40;99.90;;;;;;5037858;28;20389;-81
2023/10/16 13:17:29;;;;;;;4.28;1.10;;;14.30;99.90;;;;;;5021921;28;20041;-80
2023/10/16 13:19:55;;;;;;;2.08;1.58;;;14.30;99.90;;;;;;5038617;28;20021;-77
2023/10/16 13:22:22;;;;;;;3.75;1.33;;;14.20;99.90;;;;;;5040170;28;20033;-75
2023/10/16 13:24:48;;;;;;;3.70;1.20;;;14.20;99.90;;;;;;5036606;28;20032;-81
2023/10/16 13:27:16;;;;;;;3.60;1.30;;;14.20;99.90;;;;;;5035090;28;20437;-82
2023/10/16 13:29:42;;;;;;;7.28;1.27;;;14.20;99.90;;;;;;5037741;28;20102;-75
2023/10/16 13:32:09;;;;;;;3.20;0.93;;;14.20;99.90;;;;;;5022496;28;20025;-85
2023/10/16 13:34:36;;;;;;;10.48;1.65;;;14.20;99.90;;;;;;5036055;28;20029;-81
2023/10/16 13:37:08;;;;;;;5.30;1.85;;;14.20;99.90;;;;;;5037963;28;20490;-81
2023/10/16 13:39:40;;;;;;;3.60;1.73;;;14.20;99.90;;;;;;5034800;28;20109;-82
2023/10/16 13:42:14;;;;;;;2.45;1.30;;;14.10;99.90;;;;;;5039583;28;20425;-81
2023/10/16 13:44:40;;;;;;;2.92;1.63;;;14.10;99.90;;;;;;5016969;28;20029;-80
2023/10/16 13:47:08;;;;;;;3.47;1.42;;;14.10;99.90;;;;;;5036425;28;20026;-81
2023/10/16 13:49:37;;;;;;;8.02;1.80;;;14.00;99.90;;;;;;5017934;28;20029;-80
2023/10/16 13:52:07;;;;;;;1.73;1.30;;;14.00;99.90;;;;;;5035275;28;20032;-82
2023/10/16 13:54:35;;;;;;;5.07;1.50;;;14.10;99.90;;;;;;5039700;28;20056;-82
2023/10/16 13:57:04;;;;;;;3.88;1.70;;;14.10;99.90;;;;;;5035421;28;20040;-82
2023/10/16 13:59:30;;;;;;;3.10;1.55;;;14.00;99.90;;;;;;5020160;28;20425;-82
2023/10/16 14:01:56;;;;;;;5.65;1.52;;;14.10;99.90;;;;;;5037566;28;20021;-79
2023/10/16 14:04:25;;;;;;;3.30;1.60;;;14.10;99.90;;;;;;5034930;28;20029;-81
2023/10/16 14:06:54;;;;;;;2.30;1.75;;;14.00;99.90;;;;;;5035238;28;20029;-79
2023/10/16 14:09:27;;;;;;;4.75;1.88;;;14.00;99.90;;;;;;5036275;28;20025;-81
2023/10/16 14:11:53;;;;;;;3.13;2.30;;;14.10;99.90;;;;;;5035761;28;20025;-80
2023/10/16 14:14:20;;;;;;;3.85;2.10;;;14.10;99.90;;;;;;5034131;28;20026;-77
2023/10/16 14:17:03;;;;;;;4.32;2.25;;;14.10;99.90;;;;;;5036270;28;20036;-78
2023/10/16 14:19:29;;;;;;;2.63;1.90;;;14.10;99.90;;;;;;5016994;28;20541;-76
2023/10/16 14:21:57;;;;;;;2.03;1.80;;;14.10;99.90;;;;;;5015823;28;20115;-77
2023/10/16 14:24:24;;;;;;;9.57;2.20;;;14.20;99.90;;;;;;5033466;28;20032;-77
2023/10/16 14:26:52;;;;;;;4.30;2.30;;;14.10;99.90;;;;;;5038632;28;20033;-77
2023/10/16 14:29:20;;;;;;;2.45;1.80;;;14.20;99.90;;;;;;5039677;28;20367;-79
2023/10/16 14:31:48;;;;;;;3.60;1.90;;;14.10;99.90;;;;;;5035543;28;20017;-77
2023/10/16 14:34:18;;;;;;;4.25;1.98;;;14.10;99.90;;;;;;5041119;28;20550;-76
2023/10/16 14:36:47;;;;;;;7.10;3.70;;;14.00;99.90;;;;;;5037432;28;20030;-79
2023/10/16 14:39:14;;;;;;;9.02;3.38;;;14.00;99.90;;;;;;5039982;28;20045;-77
2023/10/16 14:41:41;;;;;;;7.57;3.60;;;14.00;99.90;;;;;;5021659;28;20067;-79
2023/10/16 14:44:11;;;;;;;7.53;3.03;;;14.00;99.90;;;;;;5038669;28;20487;-76
2023/10/16 14:46:42;;;;;;;5.90;3.08;;;14.00;99.90;;;;;;5038146;28;20045;-80
2023/10/16 14:49:09;;;;;;;4.68;2.60;;;13.90;99.90;;;;;;5040168;28;20021;-79
2023/10/16 14:51:39;;;;;;;8.38;2.70;;;14.00;99.90;;;;;;5041394;28;20017;-75
2023/10/16 14:54:06;;;;;;;5.85;2.83;;;14.00;99.90;;;;;;5038373;28;20372;-76
2023/10/16 14:56:38;;;;;;;8.70;3.50;;;14.00;99.90;;;;;;5039230;28;20095;-76
2023/10/16 14:59:07;;;;;;;5.40;2.75;;;14.00;99.90;;;;;;5039696;28;20053;-75
2023/10/16 15:01:36;;;;;;;5.50;2.42;;;14.00;99.90;;;;;;5038275;28;20486;-77